Time;durP1;ratioP1;P1;durP2;ratioP2;P2;SDS_P1;SDS_P2;PMS_P1;PMS_P2;Temp;Humidity;BMP_temperature;BMP_pressure;BME280_temperature;BME280_humidity;BME280_pressure;Samples;Min_cycle;Max_cycle;Signal;HPM_P1;HPM_P2
2024/04/21 00:01:41;;;;;;;1.38;1.27;;;;;;;;;;5383625;26;20369;-83
2024/04/21 00:04:09;;;;;;;1.20;1.17;;;1.40;99.90;;;;;;5386958;26;20263;-84
2024/04/21 00:06:38;;;;;;;2.05;1.88;;;;;;;;;;5395635;26;20263;-85
2024/04/21 00:09:05;;;;;;;0.60;0.60;;;;;;;;;;5357519;26;20225;-83
2024/04/21 00:11:33;;;;;;;1.70;1.63;;;;;;;;;;5377336;26;20225;-84
2024/04/21 00:14:00;;;;;;;2.95;2.75;;;1.70;99.90;;;;;;5391000;26;20218;-82
2024/04/21 00:16:27;;;;;;;3.33;2.35;;;1.60;99.90;;;;;;5362248;26;20225;-82
2024/04/21 00:18:54;;;;;;;2.20;2.10;;;1.50;99.90;;;;;;5392180;26;20225;-83
2024/04/21 00:21:21;;;;;;;1.65;1.60;;;1.40;99.90;;;;;;5362296;26;20413;-82
2024/04/21 00:23:48;;;;;;;3.40;3.30;;;1.30;99.90;;;;;;5371342;26;20514;-82
2024/04/21 00:26:15;;;;;;;4.10;3.78;;;1.40;99.90;;;;;;5380636;26;20452;-82
2024/04/21 00:28:45;;;;;;;4.05;3.75;;;1.30;99.90;;;;;;5392044;26;20259;-81
2024/04/21 00:31:13;;;;;;;3.47;3.17;;;1.30;99.90;;;;;;5378892;26;20281;-82
2024/04/21 00:33:40;;;;;;;2.17;1.80;;;1.30;99.90;;;;;;5384102;26;20644;-83
2024/04/21 00:36:08;;;;;;;11.10;5.25;;;1.30;99.90;;;;;;5394020;26;20260;-85
2024/04/21 00:38:35;;;;;;;5.70;5.30;;;1.20;99.90;;;;;;5380341;26;20324;-84
2024/04/21 00:41:02;;;;;;;5.88;5.40;;;1.20;99.90;;;;;;5404545;26;20240;-82
2024/04/21 00:43:29;;;;;;;3.75;3.47;;;1.20;99.90;;;;;;5379349;26;20240;-81
2024/04/21 00:45:57;;;;;;;3.33;3.13;;;1.20;99.90;;;;;;5367765;26;20438;-82
2024/04/21 00:48:25;;;;;;;41.65;5.68;;;1.00;99.90;;;;;;5392800;26;20223;-81
2024/04/21 00:50:55;;;;;;;2.20;2.10;;;1.10;99.90;;;;;;5391244;26;20480;-81
2024/04/21 00:53:23;;;;;;;2.55;2.45;;;1.10;99.90;;;;;;5348414;26;20224;-82
2024/04/21 00:55:52;;;;;;;3.25;3.00;;;1.10;99.90;;;;;;5362013;26;20318;-81
2024/04/21 00:58:19;;;;;;;3.10;2.90;;;1.10;99.90;;;;;;5392609;26;20272;-81
2024/04/21 01:00:46;;;;;;;2.92;2.83;;;1.10;99.90;;;;;;5392110;26;20217;-81
2024/04/21 01:03:15;;;;;;;5.88;5.45;;;1.20;99.90;;;;;;5379796;26;20257;-81
2024/04/21 01:05:41;;;;;;;2.92;2.78;;;1.30;99.90;;;;;;5352913;26;20273;-81
2024/04/21 01:08:09;;;;;;;4.20;3.90;;;1.30;99.90;;;;;;5387891;26;20292;-82
2024/04/21 01:10:36;;;;;;;2.88;2.78;;;1.40;99.90;;;;;;5376192;26;20252;-82
2024/04/21 01:13:10;;;;;;;4.57;4.35;;;1.40;99.90;;;;;;5368113;26;20472;-82
2024/04/21 01:15:37;;;;;;;3.97;3.67;;;1.40;99.90;;;;;;5372921;26;20254;-82
2024/04/21 01:18:06;;;;;;;6.88;6.45;;;1.40;99.90;;;;;;5398053;26;20212;-83
2024/04/21 01:20:34;;;;;;;1.60;1.50;;;1.40;99.90;;;;;;5375779;26;20263;-79
2024/04/21 01:23:02;;;;;;;10.60;9.27;;;1.50;99.90;;;;;;5402760;26;20286;-81
2024/04/21 01:25:29;;;;;;;2.95;2.25;;;1.50;99.90;;;;;;5356976;26;20221;-80
2024/04/21 01:27:56;;;;;;;4.75;4.20;;;1.50;99.90;;;;;;5361193;26;20247;-82
2024/04/21 01:30:24;;;;;;;2.25;1.80;;;1.60;99.90;;;;;;5391110;26;20251;-81
2024/04/21 01:32:51;;;;;;;5.22;3.85;;;1.60;99.90;;;;;;5386542;26;20224;-79
2024/04/21 01:35:18;;;;;;;1.80;1.70;;;1.60;99.90;;;;;;5374519;26;20227;-81
2024/04/21 01:37:45;;;;;;;1.25;1.25;;;1.70;99.90;;;;;;5358883;26;20267;-79
2024/04/21 01:40:13;;;;;;;1.10;1.10;;;1.60;99.90;;;;;;5370551;26;20374;-82
2024/04/21 01:42:40;;;;;;;2.95;2.65;;;1.50;99.90;;;;;;5390986;26;20275;-81
2024/04/21 01:45:07;;;;;;;5.65;2.22;;;1.70;99.90;;;;;;5376760;26;20233;-80
2024/04/21 01:47:34;;;;;;;1.95;1.85;;;1.70;99.90;;;;;;5390241;26;20275;-81
2024/04/21 01:50:01;;;;;;;1.83;1.73;;;1.70;99.90;;;;;;5384609;26;20398;-81
2024/04/21 01:52:28;;;;;;;2.25;1.75;;;1.60;99.90;;;;;;5357426;26;20319;-81
2024/04/21 01:54:55;;;;;;;2.72;2.53;;;1.70;99.90;;;;;;5375502;26;20258;-80
2024/04/21 01:57:22;;;;;;;3.00;2.90;;;1.70;99.90;;;;;;5382271;26;20224;-79
2024/04/21 01:59:49;;;;;;;2.25;2.15;;;1.70;99.90;;;;;;5386898;26;20523;-81
2024/04/21 02:02:17;;;;;;;2.80;2.65;;;1.70;99.90;;;;;;5380112;26;20278;-80
2024/04/21 02:04:44;;;;;;;2.53;2.33;;;1.70;99.90;;;;;;5375881;26;20221;-81
2024/04/21 02:07:11;;;;;;;4.60;4.30;;;1.70;99.90;;;;;;5382195;26;20257;-82
2024/04/21 02:09:38;;;;;;;2.30;2.20;;;1.80;99.90;;;;;;5385211;26;20458;-83
2024/04/21 02:12:06;;;;;;;2.92;2.08;;;1.80;99.90;;;;;;5373904;26;20225;-82
2024/04/21 02:14:33;;;;;;;1.95;1.85;;;1.80;99.90;;;;;;5361895;26;20272;-81
2024/04/21 02:17:01;;;;;;;2.00;1.90;;;1.80;99.90;;;;;;5394366;26;20221;-81
2024/04/21 02:19:28;;;;;;;8.02;3.72;;;1.80;99.90;;;;;;5394192;26;20314;-79
2024/04/21 02:21:55;;;;;;;2.05;1.95;;;1.80;99.90;;;;;;5364794;26;20237;-79
2024/04/21 02:24:25;;;;;;;1.33;1.23;;;1.90;99.90;;;;;;5395176;26;20259;-81
2024/04/21 02:26:52;;;;;;;2.45;2.35;;;1.80;99.90;;;;;;5396170;26;20229;-80
2024/04/21 02:29:19;;;;;;;0.80;0.80;;;1.80;99.90;;;;;;5398924;26;20278;-81
2024/04/21 02:31:47;;;;;;;1.73;1.63;;;1.90;99.90;;;;;;5400576;26;20261;-83
2024/04/21 02:34:14;;;;;;;0.77;0.77;;;1.90;99.90;;;;;;5378425;26;20237;-80
2024/04/21 02:36:41;;;;;;;4.80;3.88;;;1.90;99.90;;;;;;5371406;26;20306;-80
2024/04/21 02:39:08;;;;;;;2.47;2.38;;;1.90;99.90;;;;;;5389262;26;20229;-80
2024/04/21 02:41:35;;;;;;;0.82;0.82;;;1.90;99.90;;;;;;5390601;26;20234;-82
2024/04/21 02:44:02;;;;;;;1.80;1.77;;;1.90;99.90;;;;;;5376361;26;20261;-79
2024/04/21 02:46:29;;;;;;;3.75;2.72;;;2.00;99.90;;;;;;5364198;26;20294;-79
2024/04/21 02:48:56;;;;;;;0.90;0.90;;;1.60;99.90;;;;;;5389335;26;20350;-82
2024/04/21 02:51:23;;;;;;;1.20;1.20;;;2.00;99.90;;;;;;5370923;26;20278;-79
2024/04/21 02:53:50;;;;;;;2.33;2.20;;;2.10;99.90;;;;;;5384205;26;20225;-80
2024/04/21 02:56:18;;;;;;;2.50;2.40;;;2.20;99.90;;;;;;5372767;26;20256;-77
2024/04/21 02:58:45;;;;;;;2.55;1.55;;;2.20;99.90;;;;;;5403452;26;20214;-78
2024/04/21 03:01:12;;;;;;;1.42;1.42;;;2.30;99.90;;;;;;5399196;26;20222;-80
2024/04/21 03:03:39;;;;;;;1.42;1.38;;;2.30;99.90;;;;;;5384943;26;20247;-79
2024/04/21 03:06:06;;;;;;;0.90;0.90;;;2.40;99.90;;;;;;5388361;26;20237;-77
2024/04/21 03:08:33;;;;;;;1.02;1.02;;;2.40;99.90;;;;;;5382394;26;20497;-78
2024/04/21 03:11:00;;;;;;;11.88;2.72;;;2.40;99.90;;;;;;5383720;26;20278;-77
2024/04/21 03:13:27;;;;;;;0.60;0.60;;;2.40;99.90;;;;;;5388200;26;20383;-77
2024/04/21 03:15:55;;;;;;;2.30;2.17;;;2.40;99.90;;;;;;5393678;26;20470;-84
2024/04/21 03:18:22;;;;;;;2.25;2.15;;;2.40;99.90;;;;;;5364799;26;20225;-82
2024/04/21 03:20:56;;;;;;;3.55;3.35;;;2.40;99.90;;;;;;5364224;26;20300;-80
2024/04/21 03:23:23;;;;;;;4.78;3.22;;;2.50;99.90;;;;;;5372592;26;20223;-83
2024/04/21 03:25:50;;;;;;;1.00;1.00;;;2.50;99.90;;;;;;5394171;26;20482;-78
2024/04/21 03:28:18;;;;;;;2.35;2.15;;;2.50;99.90;;;;;;5383612;26;20282;-79
2024/04/21 03:30:56;;;;;;;0.98;0.98;;;2.50;99.90;;;;;;5388304;26;20225;-79
2024/04/21 03:33:23;;;;;;;2.60;2.40;;;2.50;99.90;;;;;;5379156;26;20221;-78
2024/04/21 03:36:04;;;;;;;5.72;3.08;;;2.50;99.90;;;;;;5361712;26;20365;-78
2024/04/21 03:38:32;;;;;;;0.52;0.52;;;2.60;99.90;;;;;;5384110;26;20217;-83
2024/04/21 03:41:00;;;;;;;1.77;1.27;;;2.50;99.90;;;;;;5396096;26;20235;-82
2024/04/21 03:43:28;;;;;;;1.77;1.67;;;2.50;99.90;;;;;;5390776;26;20272;-76
2024/04/21 03:45:56;;;;;;;3.08;2.95;;;2.50;99.90;;;;;;5393240;26;20299;-78
2024/04/21 03:48:23;;;;;;;6.07;5.50;;;2.50;99.90;;;;;;5365517;26;20303;-80
2024/04/21 03:50:50;;;;;;;2.72;2.63;;;2.40;99.90;;;;;;5401164;26;20529;-77
2024/04/21 03:53:20;;;;;;;1.15;1.15;;;2.50;99.90;;;;;;5397199;26;20291;-78
2024/04/21 03:55:47;;;;;;;3.00;2.85;;;2.50;99.90;;;;;;5384868;26;20275;-79
2024/04/21 03:58:14;;;;;;;2.00;1.90;;;2.50;99.90;;;;;;5382050;26;20344;-78
2024/04/21 04:00:43;;;;;;;2.92;2.72;;;2.50;99.90;;;;;;5362591;26;20445;-77
2024/04/21 04:03:10;;;;;;;1.67;1.63;;;2.50;99.90;;;;;;5362942;26;20567;-85
2024/04/21 04:05:37;;;;;;;1.50;1.50;;;2.60;99.90;;;;;;5387379;26;20290;-78
2024/04/21 04:08:04;;;;;;;2.25;2.17;;;2.50;99.90;;;;;;5389488;26;20214;-82
2024/04/21 04:10:31;;;;;;;10.25;2.35;;;2.50;99.90;;;;;;5401829;26;20215;-78
2024/04/21 04:12:58;;;;;;;1.95;1.85;;;3.40;99.90;;;;;;5385547;26;20229;-77
2024/04/21 04:15:25;;;;;;;2.67;2.50;;;2.50;99.90;;;;;;5374394;26;20225;-80
2024/04/21 04:17:53;;;;;;;3.58;3.42;;;2.50;99.90;;;;;;5374768;26;20408;-79
2024/04/21 04:20:20;;;;;;;1.33;1.27;;;2.50;99.90;;;;;;5393753;26;20222;-78
2024/04/21 04:22:47;;;;;;;0.95;0.95;;;2.50;99.90;;;;;;5371512;26;20288;-83
2024/04/21 04:25:14;;;;;;;0.98;0.98;;;2.60;99.90;;;;;;5372551;26;20774;-81
2024/04/21 04:27:41;;;;;;;1.50;1.13;;;2.50;99.90;;;;;;5384731;26;20263;-79
2024/04/21 04:30:09;;;;;;;1.08;1.08;;;2.50;99.90;;;;;;5391928;26;20229;-84
2024/04/21 04:32:36;;;;;;;0.85;0.85;;;2.50;99.90;;;;;;5377886;26;20482;-85
2024/04/21 04:35:05;;;;;;;1.00;1.00;;;2.50;99.90;;;;;;5388593;26;20229;-82
2024/04/21 04:37:32;;;;;;;0.50;0.50;;;2.50;99.90;;;;;;5387739;26;20218;-79
2024/04/21 04:39:59;;;;;;;2.88;2.35;;;2.50;99.90;;;;;;5386212;26;20255;-77
2024/04/21 04:42:26;;;;;;;2.47;2.28;;;2.50;99.90;;;;;;5389699;26;20378;-80
2024/04/21 04:44:54;;;;;;;3.40;3.20;;;2.50;99.90;;;;;;5372409;26;20289;-82
2024/04/21 04:47:21;;;;;;;0.82;0.82;;;2.60;99.90;;;;;;5362925;26;20277;-77
2024/04/21 04:49:48;;;;;;;3.17;2.90;;;2.50;99.90;;;;;;5391918;26;20474;-78
2024/04/21 04:52:15;;;;;;;3.28;3.08;;;2.60;99.90;;;;;;5377686;26;20230;-80
2024/04/21 04:54:42;;;;;;;0.70;0.70;;;2.60;99.90;;;;;;5364873;26;20330;-78
2024/04/21 04:57:09;;;;;;;7.97;2.25;;;2.60;99.90;;;;;;5355057;26;20221;-81
2024/04/21 04:59:36;;;;;;;1.45;1.35;;;3.90;99.90;;;;;;5385072;26;20518;-81
2024/04/21 05:02:03;;;;;;;2.20;1.55;;;2.60;99.90;;;;;;5385632;26;20217;-78
2024/04/21 05:04:31;;;;;;;1.55;1.55;;;2.70;99.90;;;;;;5392051;26;20285;-86
2024/04/21 05:06:58;;;;;;;1.27;1.27;;;2.70;99.90;;;;;;5382188;26;20490;-78
2024/04/21 05:09:25;;;;;;;0.63;0.63;;;2.70;99.90;;;;;;5369402;26;20322;-79
2024/04/21 05:11:52;;;;;;;2.30;2.20;;;2.70;99.90;;;;;;5377123;26;20260;-78
2024/04/21 05:14:21;;;;;;;1.13;1.13;;;2.50;99.90;;;;;;5369854;26;20465;-81
2024/04/21 05:16:48;;;;;;;0.60;0.60;;;2.60;99.90;;;;;;5357513;26;20276;-80
2024/04/21 05:19:15;;;;;;;0.75;0.75;;;2.70;99.90;;;;;;5371719;26;20219;-77
2024/04/21 05:21:43;;;;;;;2.08;1.98;;;2.70;99.90;;;;;;5361919;26;20248;-84
2024/04/21 05:24:10;;;;;;;1.30;1.30;;;2.70;99.90;;;;;;5375731;26;20409;-83
2024/04/21 05:26:37;;;;;;;4.97;3.63;;;2.60;99.90;;;;;;5390463;26;20246;-87
2024/04/21 05:29:04;;;;;;;0.60;0.60;;;2.50;99.90;;;;;;5390140;26;20253;-82
2024/04/21 05:31:31;;;;;;;1.13;1.13;;;2.60;99.90;;;;;;5397638;26;20268;-81
2024/04/21 05:33:59;;;;;;;2.20;2.00;;;2.80;99.90;;;;;;5400895;26;20267;-86
2024/04/21 05:36:26;;;;;;;1.70;1.60;;;2.70;99.90;;;;;;5393437;26;20221;-80
2024/04/21 05:38:53;;;;;;;1.45;1.35;;;2.80;99.90;;;;;;5363826;26;20256;-83
2024/04/21 05:41:20;;;;;;;3.35;2.25;;;2.90;99.90;;;;;;5386024;26;20222;-85
2024/04/21 05:43:47;;;;;;;0.68;0.68;;;3.20;99.90;;;;;;5392037;26;20273;-83
2024/04/21 05:46:14;;;;;;;0.50;0.50;;;5.00;99.90;;;;;;5386474;26;20281;-83
2024/04/21 05:48:41;;;;;;;1.25;1.25;;;3.60;99.90;;;;;;5372175;26;20234;-84
2024/04/21 05:51:08;;;;;;;1.73;1.63;;;3.50;99.90;;;;;;5400035;26;20221;-85
2024/04/21 05:53:35;;;;;;;0.50;0.50;;;4.10;99.90;;;;;;5387520;26;20380;-82
2024/04/21 05:56:03;;;;;;;0.95;0.95;;;3.60;99.90;;;;;;5391844;26;20459;-84
2024/04/21 05:58:30;;;;;;;0.80;0.80;;;3.60;99.90;;;;;;5382736;26;20404;-84
2024/04/21 06:00:59;;;;;;;1.83;1.67;;;3.30;99.90;;;;;;5371551;26;20519;-78
2024/04/21 06:03:26;;;;;;;0.77;0.77;;;2.90;99.90;;;;;;5383723;26;20218;-84
2024/04/21 06:05:53;;;;;;;1.80;1.70;;;3.20;99.90;;;;;;5395161;26;20511;-82
2024/04/21 06:08:20;;;;;;;0.60;0.60;;;3.10;99.90;;;;;;5387955;26;20223;-81
2024/04/21 06:10:47;;;;;;;0.60;0.60;;;3.60;99.90;;;;;;5389359;26;20282;-80
2024/04/21 06:13:14;;;;;;;0.50;0.50;;;3.90;99.90;;;;;;5380708;26;20450;-85
2024/04/21 06:15:42;;;;;;;1.20;1.20;;;3.70;99.90;;;;;;5358017;26;20217;-85
2024/04/21 06:18:09;;;;;;;0.50;0.50;;;4.00;99.90;;;;;;5395196;26;20302;-82
2024/04/21 06:20:36;;;;;;;0.95;0.95;;;3.70;99.90;;;;;;5378451;26;20227;-81
2024/04/21 06:23:03;;;;;;;0.70;0.70;;;3.90;99.90;;;;;;5396461;26;20282;-85
2024/04/21 06:25:33;;;;;;;0.50;0.50;;;4.00;99.90;;;;;;5381972;26;20252;-86
2024/04/21 06:28:01;;;;;;;0.60;0.60;;;;;;;;;;5386750;26;20229;-84
2024/04/21 06:30:28;;;;;;;0.50;0.50;;;;;;;;;;5360889;26;20278;-79
2024/04/21 06:32:56;;;;;;;0.70;0.70;;;4.40;99.90;;;;;;5354001;26;20267;-81
2024/04/21 06:35:23;;;;;;;2.03;1.92;;;4.20;99.90;;;;;;5389486;26;20539;-83
2024/04/21 06:37:50;;;;;;;0.50;0.50;;;;;;;;;;5396613;26;20214;-87
2024/04/21 06:40:17;;;;;;;0.50;0.50;;;;;;;;;;5395087;26;20290;-78
2024/04/21 06:42:44;;;;;;;1.02;1.02;;;4.80;99.90;;;;;;5396134;26;20268;-84
2024/04/21 06:45:11;;;;;;;0.60;0.60;;;4.00;99.90;;;;;;5384062;26;20230;-81
2024/04/21 06:47:39;;;;;;;1.02;0.93;;;4.30;99.90;;;;;;5397300;26;20294;-83
2024/04/21 06:50:06;;;;;;;6.15;1.60;;;4.60;99.90;;;;;;5385991;26;20214;-85
2024/04/21 06:52:33;;;;;;;1.98;1.88;;;5.30;99.90;;;;;;5349636;26;20256;-85
2024/04/21 06:55:00;;;;;;;1.30;1.30;;;5.70;99.90;;;;;;5362114;26;20291;-85
2024/04/21 06:57:28;;;;;;;1.38;1.38;;;5.60;99.90;;;;;;5390712;26;20514;-85
2024/04/21 06:59:56;;;;;;;1.30;1.20;;;6.30;99.90;;;;;;5399241;26;20263;-84
2024/04/21 07:02:23;;;;;;;0.88;0.88;;;6.60;99.90;;;;;;5374362;26;20341;-83
2024/04/21 07:04:50;;;;;;;0.60;0.60;;;6.40;99.90;;;;;;5372426;26;20499;-87
2024/04/21 07:07:17;;;;;;;1.48;1.15;;;6.10;99.90;;;;;;5381748;26;20250;-84
2024/04/21 07:09:45;;;;;;;0.80;0.80;;;5.10;99.90;;;;;;5402613;26;20271;-86
2024/04/21 07:12:14;;;;;;;1.73;1.63;;;4.00;99.90;;;;;;5400131;26;20254;-84
2024/04/21 07:14:42;;;;;;;0.68;0.68;;;4.90;99.90;;;;;;5327009;26;20271;-84
2024/04/21 07:17:09;;;;;;;2.92;1.80;;;5.90;99.90;;;;;;5373024;26;20211;-83
2024/04/21 07:19:36;;;;;;;1.52;1.50;;;6.80;99.90;;;;;;5396804;26;20215;-84
2024/04/21 07:22:03;;;;;;;1.40;1.30;;;6.70;99.90;;;;;;5401214;26;20227;-83
2024/04/21 07:24:33;;;;;;;0.60;0.60;;;5.50;99.90;;;;;;5401937;26;20224;-81
2024/04/21 07:27:02;;;;;;;1.60;1.50;;;6.90;99.90;;;;;;5406153;26;20221;-84
2024/04/21 07:29:29;;;;;;;0.90;0.90;;;9.00;84.80;;;;;;5406232;26;20343;-84
2024/04/21 07:31:56;;;;;;;1.65;1.55;;;9.50;79.30;;;;;;5377655;26;20240;-81
2024/04/21 07:34:23;;;;;;;0.60;0.60;;;9.10;76.70;;;;;;5405027;26;20279;-83
2024/04/21 07:36:50;;;;;;;0.60;0.60;;;5.70;99.90;;;;;;5402674;26;20212;-83
2024/04/21 07:39:17;;;;;;;1.48;1.45;;;4.90;99.90;;;;;;5397182;26;20298;-85
2024/04/21 07:41:44;;;;;;;0.50;0.50;;;4.90;99.90;;;;;;5396142;26;20235;-85
2024/04/21 07:44:11;;;;;;;0.60;0.60;;;4.60;99.90;;;;;;5395602;26;20223;-83
2024/04/21 07:46:38;;;;;;;1.00;1.00;;;4.90;99.90;;;;;;5386174;26;20332;-82
2024/04/21 07:49:05;;;;;;;0.50;0.50;;;4.50;99.90;;;;;;5397214;26;20226;-80
2024/04/21 07:51:32;;;;;;;1.10;1.05;;;5.60;99.90;;;;;;5383894;26;20297;-82
2024/04/21 07:53:59;;;;;;;1.35;1.35;;;5.20;99.90;;;;;;5387233;26;20263;-85
2024/04/21 07:56:28;;;;;;;0.50;0.50;;;5.30;99.90;;;;;;5396736;26;20363;-82
2024/04/21 07:58:55;;;;;;;1.17;1.17;;;4.00;99.90;;;;;;5385938;26;20305;-80
2024/04/21 08:01:23;;;;;;;0.50;0.50;;;4.20;99.90;;;;;;5394929;26;20510;-79
2024/04/21 08:03:50;;;;;;;0.50;0.50;;;4.40;99.90;;;;;;5397129;26;20275;-83
2024/04/21 08:06:17;;;;;;;0.70;0.70;;;4.10;99.90;;;;;;5390924;26;20235;-85
2024/04/21 08:08:47;;;;;;;2.28;1.45;;;4.10;99.90;;;;;;5367014;26;20513;-81
2024/04/21 08:11:26;;;;;;;1.33;1.27;;;4.50;99.90;;;;;;5370834;26;20308;-80
2024/04/21 08:13:53;;;;;;;0.82;0.82;;;4.40;99.90;;;;;;5396536;26;20257;-80
2024/04/21 08:16:20;;;;;;;0.65;0.65;;;4.50;99.90;;;;;;5399299;26;20257;-82
2024/04/21 08:18:49;;;;;;;2.55;2.35;;;4.80;99.90;;;;;;5359957;26;20261;-82
2024/04/21 08:21:16;;;;;;;1.65;1.55;;;4.70;99.90;;;;;;5367162;26;20327;-81
2024/04/21 08:23:43;;;;;;;0.50;0.50;;;4.30;99.90;;;;;;5396653;26;20234;-85
2024/04/21 08:26:10;;;;;;;0.65;0.65;;;4.30;99.90;;;;;;5384356;26;20249;-79
2024/04/21 08:28:37;;;;;;;0.65;0.65;;;4.60;99.90;;;;;;5396411;26;20219;-82
2024/04/21 08:31:04;;;;;;;0.50;0.50;;;4.20;99.90;;;;;;5371232;26;20210;-81
2024/04/21 08:33:31;;;;;;;0.88;0.88;;;4.40;99.90;;;;;;5397343;26;20218;-84
2024/04/21 08:35:58;;;;;;;0.93;0.93;;;4.40;99.90;;;;;;5387157;26;20463;-86
2024/04/21 08:38:27;;;;;;;2.25;2.15;;;4.50;99.90;;;;;;5382570;26;20222;-81
2024/04/21 08:40:55;;;;;;;0.60;0.60;;;4.80;99.90;;;;;;5396243;26;20242;-84
2024/04/21 08:43:24;;;;;;;1.63;1.55;;;5.10;99.90;;;;;;5408497;26;20225;-81
2024/04/21 08:45:55;;;;;;;0.77;0.77;;;4.70;99.90;;;;;;5396200;26;20269;-81
2024/04/21 08:48:23;;;;;;;1.05;1.05;;;4.60;99.90;;;;;;5397334;26;20264;-81
2024/04/21 08:50:50;;;;;;;0.60;0.60;;;4.80;99.90;;;;;;5394302;26;20282;-81
2024/04/21 08:53:20;;;;;;;0.73;0.73;;;4.90;99.90;;;;;;5390041;26;20214;-85
2024/04/21 08:55:48;;;;;;;1.73;1.42;;;4.80;99.90;;;;;;5400680;26;20270;-81
2024/04/21 08:58:17;;;;;;;0.80;0.80;;;4.80;99.90;;;;;;5394933;26;20267;-81
2024/04/21 09:00:48;;;;;;;0.60;0.60;;;4.90;99.90;;;;;;5378207;26;20545;-80
2024/04/21 09:03:16;;;;;;;0.90;0.90;;;4.70;99.90;;;;;;5405393;26;20306;-86
2024/04/21 09:05:53;;;;;;;1.08;0.95;;;4.80;99.90;;;;;;5338315;26;20215;-84
2024/04/21 09:08:26;;;;;;;0.57;0.57;;;4.90;99.90;;;;;;5360078;26;20232;-81
2024/04/21 09:10:58;;;;;;;1.05;1.05;;;5.00;99.90;;;;;;5380130;26;20299;-78
2024/04/21 09:13:32;;;;;;;1.35;1.25;;;4.70;99.90;;;;;;5396400;26;20285;-84
2024/04/21 09:16:00;;;;;;;0.68;0.68;;;4.80;99.90;;;;;;5367691;26;20458;-88
2024/04/21 09:18:29;;;;;;;0.70;0.70;;;4.80;99.90;;;;;;5373160;26;20287;-84
2024/04/21 09:20:59;;;;;;;0.70;0.70;;;4.90;99.90;;;;;;5370544;26;20229;-86
2024/04/21 09:23:26;;;;;;;1.00;1.00;;;5.00;99.90;;;;;;5315479;26;20448;-79
2024/04/21 09:25:56;;;;;;;1.25;1.25;;;5.20;99.90;;;;;;5391660;26;20235;-82
2024/04/21 09:28:25;;;;;;;1.25;1.25;;;5.50;99.90;;;;;;5384855;26;20223;-82
2024/04/21 09:30:52;;;;;;;0.98;0.98;;;5.60;99.90;;;;;;5362908;26;20223;-82
2024/04/21 09:33:20;;;;;;;0.50;0.50;;;6.00;99.90;;;;;;5390363;26;20220;-81
2024/04/21 09:35:48;;;;;;;0.68;0.68;;;5.80;99.90;;;;;;5383881;26;20291;-82
2024/04/21 09:38:16;;;;;;;0.50;0.50;;;5.70;99.90;;;;;;5383468;26;20277;-82
2024/04/21 09:40:43;;;;;;;1.00;1.00;;;5.50;99.90;;;;;;5387014;26;20276;-85
2024/04/21 09:43:15;;;;;;;0.60;0.60;;;5.10;99.90;;;;;;5385758;26;20511;-83
2024/04/21 09:45:42;;;;;;;0.82;0.82;;;5.10;99.90;;;;;;5389925;26;20222;-80
2024/04/21 09:48:11;;;;;;;0.60;0.60;;;5.10;99.90;;;;;;5399176;26;20249;-82
2024/04/21 09:50:43;;;;;;;1.02;0.60;;;4.90;99.90;;;;;;5380728;26;20223;-81
2024/04/21 09:53:10;;;;;;;2.92;2.33;;;4.80;99.90;;;;;;5389604;26;20224;-80
2024/04/21 09:55:40;;;;;;;0.68;0.68;;;5.10;99.90;;;;;;5391264;26;20294;-83
2024/04/21 09:58:13;;;;;;;0.63;0.63;;;5.60;99.90;;;;;;5525179;21;20256;-83
2024/04/21 10:00:43;;;;;;;1.23;1.13;;;5.30;99.90;;;;;;5408700;26;20409;-81
2024/04/21 10:03:10;;;;;;;2.30;2.20;;;5.10;99.90;;;;;;5388758;26;20334;-84
2024/04/21 10:05:40;;;;;;;1.58;1.15;;;5.30;99.90;;;;;;5433912;26;20260;-83
2024/04/21 10:08:09;;;;;;;1.45;1.45;;;5.30;99.90;;;;;;5375992;26;20295;-82
2024/04/21 10:10:38;;;;;;;0.60;0.60;;;5.40;99.90;;;;;;5402692;26;20271;-80
2024/04/21 10:13:06;;;;;;;1.35;1.17;;;5.30;99.90;;;;;;5403086;26;20217;-82
2024/04/21 10:15:35;;;;;;;0.60;0.60;;;5.30;99.90;;;;;;5403936;26;20248;-83
2024/04/21 10:18:02;;;;;;;1.02;1.02;;;5.00;99.90;;;;;;5433905;26;20281;-81
2024/04/21 10:20:32;;;;;;;0.88;0.88;;;5.00;99.90;;;;;;5426816;26;20214;-79
2024/04/21 10:23:09;;;;;;;1.02;1.00;;;4.90;99.90;;;;;;5432549;26;20367;-82
2024/04/21 10:25:39;;;;;;;1.17;1.17;;;4.80;99.90;;;;;;5426218;26;20218;-83
2024/04/21 10:28:07;;;;;;;0.55;0.55;;;5.10;99.90;;;;;;5396895;26;20274;-82
2024/04/21 10:30:36;;;;;;;0.82;0.82;;;5.40;99.90;;;;;;5432301;26;20217;-85
2024/04/21 10:33:06;;;;;;;0.50;0.50;;;4.80;99.90;;;;;;5436486;26;20534;-79
2024/04/21 10:35:34;;;;;;;3.25;2.90;;;4.70;99.90;;;;;;5402339;26;20216;-86
2024/04/21 10:38:05;;;;;;;0.70;0.70;;;4.90;99.90;;;;;;5421941;26;20271;-82
2024/04/21 10:40:39;;;;;;;1.90;1.08;;;5.10;99.90;;;;;;5422035;26;20402;-82
2024/04/21 10:43:07;;;;;;;0.82;0.82;;;5.00;99.90;;;;;;5432118;26;20225;-80
2024/04/21 10:45:38;;;;;;;1.42;1.42;;;5.10;99.90;;;;;;5402752;26;20291;-81
2024/04/21 10:48:07;;;;;;;2.05;1.95;;;5.00;99.90;;;;;;5396345;26;20222;-77
2024/04/21 10:50:39;;;;;;;1.17;1.08;;;5.20;99.90;;;;;;5408859;26;20272;-81
2024/04/21 10:53:08;;;;;;;1.83;1.73;;;5.10;99.90;;;;;;5407485;26;20293;-80
2024/04/21 10:55:35;;;;;;;0.98;0.98;;;5.00;99.90;;;;;;5435283;26;20259;-82
2024/04/21 10:58:03;;;;;;;1.83;1.73;;;4.80;99.90;;;;;;5435296;26;20225;-81
2024/04/21 11:00:33;;;;;;;0.70;0.70;;;5.10;99.90;;;;;;5418556;26;20222;-81
2024/04/21 11:03:00;;;;;;;1.35;1.30;;;5.20;99.90;;;;;;5403846;26;20260;-79
2024/04/21 11:05:32;;;;;;;1.65;1.55;;;5.30;99.90;;;;;;5434303;26;20214;-83
2024/04/21 11:08:01;;;;;;;1.50;1.50;;;5.10;99.90;;;;;;5435559;26;20281;-82
2024/04/21 11:10:28;;;;;;;1.00;1.00;;;4.90;99.90;;;;;;5389143;26;20464;-82
2024/04/21 11:12:55;;;;;;;1.58;1.48;;;5.20;99.90;;;;;;5433290;26;20218;-81
2024/04/21 11:15:23;;;;;;;2.25;1.38;;;5.00;99.90;;;;;;5432702;26;20282;-80
2024/04/21 11:18:00;;;;;;;1.25;1.25;;;5.00;99.90;;;;;;5433901;26;20318;-78
2024/04/21 11:20:28;;;;;;;0.60;0.60;;;4.80;99.90;;;;;;5431935;26;20248;-80
2024/04/21 11:22:55;;;;;;;0.60;0.60;;;4.90;99.90;;;;;;5401764;26;20221;-81
2024/04/21 11:25:25;;;;;;;1.33;1.27;;;5.00;99.90;;;;;;5433142;26;20385;-81
2024/04/21 11:27:52;;;;;;;1.13;1.13;;;4.90;99.90;;;;;;5432788;26;20213;-80
2024/04/21 11:30:21;;;;;;;0.82;0.82;;;5.40;99.90;;;;;;5419895;26;20222;-82
2024/04/21 11:32:49;;;;;;;0.60;0.60;;;5.70;99.90;;;;;;5398449;26;20265;-80
2024/04/21 11:35:18;;;;;;;1.08;1.08;;;5.80;99.90;;;;;;5395919;26;20278;-81
2024/04/21 11:37:47;;;;;;;0.85;0.85;;;5.80;99.90;;;;;;5434774;26;20209;-80
2024/04/21 11:40:19;;;;;;;0.60;0.60;;;5.90;99.90;;;;;;5391002;26;20268;-86
2024/04/21 11:42:47;;;;;;;0.70;0.70;;;5.60;99.90;;;;;;5417376;26;20252;-80
2024/04/21 11:45:27;;;;;;;0.90;0.90;;;5.90;99.90;;;;;;5403180;26;20292;-82
2024/04/21 11:47:59;;;;;;;0.70;0.70;;;5.80;99.90;;;;;;5430295;26;20298;-79
2024/04/21 11:50:27;;;;;;;1.23;1.23;;;6.00;99.90;;;;;;5417454;26;20324;-80
2024/04/21 11:52:54;;;;;;;0.82;0.82;;;6.40;99.90;;;;;;5424642;26;20266;-83
2024/04/21 11:55:22;;;;;;;1.88;1.77;;;6.30;99.90;;;;;;5400164;26;20215;-79
2024/04/21 11:57:49;;;;;;;1.40;1.40;;;6.70;99.90;;;;;;5438062;26;20244;-80
2024/04/21 12:00:16;;;;;;;0.70;0.70;;;6.90;99.90;;;;;;5439405;26;20307;-87
2024/04/21 12:02:43;;;;;;;1.25;1.25;;;7.00;99.90;;;;;;5408940;26;20287;-83
2024/04/21 12:05:10;;;;;;;1.83;1.73;;;6.30;99.90;;;;;;5409232;26;20240;-80
2024/04/21 12:07:37;;;;;;;0.50;0.50;;;6.70;99.90;;;;;;5431352;26;20679;-84
2024/04/21 12:10:05;;;;;;;1.00;1.00;;;6.70;99.90;;;;;;5433702;26;20228;-82
2024/04/21 12:12:32;;;;;;;1.08;1.08;;;6.70;99.90;;;;;;5433539;26;20223;-82
2024/04/21 12:15:00;;;;;;;1.23;1.10;;;6.90;99.90;;;;;;5400379;26;20504;-79
2024/04/21 12:17:27;;;;;;;0.63;0.63;;;6.90;99.90;;;;;;5403207;26;20274;-82
2024/04/21 12:19:54;;;;;;;1.27;1.27;;;6.80;99.90;;;;;;5405571;26;20251;-82
2024/04/21 12:22:21;;;;;;;1.00;1.00;;;6.60;99.90;;;;;;5424037;26;20291;-81
2024/04/21 12:24:49;;;;;;;0.90;0.90;;;6.90;99.90;;;;;;5435341;26;20227;-84
2024/04/21 12:27:16;;;;;;;0.60;0.60;;;6.70;99.90;;;;;;5408020;26;20300;-84
2024/04/21 12:29:43;;;;;;;0.93;0.93;;;6.60;99.90;;;;;;5432255;26;20247;-83
2024/04/21 12:32:10;;;;;;;0.60;0.60;;;6.50;99.90;;;;;;5429722;26;20524;-82
2024/04/21 12:34:37;;;;;;;0.55;0.55;;;6.40;99.90;;;;;;5399692;26;20218;-81
2024/04/21 12:37:04;;;;;;;0.70;0.70;;;6.50;99.90;;;;;;5430131;26;20224;-85
2024/04/21 12:39:32;;;;;;;0.70;0.70;;;6.30;99.90;;;;;;5399834;26;20218;-80
2024/04/21 12:42:00;;;;;;;0.60;0.60;;;5.80;99.90;;;;;;5394425;26;20394;-82
2024/04/21 12:44:27;;;;;;;0.77;0.77;;;6.00;99.90;;;;;;5429201;26;20280;-83
2024/04/21 12:46:54;;;;;;;0.57;0.57;;;6.00;99.90;;;;;;5429975;26;20279;-81
2024/04/21 12:49:22;;;;;;;1.23;1.20;;;5.80;99.90;;;;;;5421717;26;20297;-79
2024/04/21 12:51:49;;;;;;;0.50;0.50;;;6.00;99.90;;;;;;5424388;26;20215;-80
2024/04/21 12:54:16;;;;;;;1.25;1.15;;;6.00;99.90;;;;;;5426342;26;20296;-83
2024/04/21 12:56:47;;;;;;;0.50;0.50;;;6.20;99.90;;;;;;5429812;26;20215;-83
2024/04/21 12:59:13;;;;;;;1.30;1.20;;;6.20;99.90;;;;;;5400627;26;20269;-81
2024/04/21 13:01:41;;;;;;;0.95;0.95;;;6.00;99.90;;;;;;5400322;26;20281;-79
2024/04/21 13:04:08;;;;;;;0.57;0.57;;;6.30;99.90;;;;;;5408671;26;20468;-82